JST481 YSSY-YMML
Flight info
| Callsign | JST481 |
|---|---|
| Flight time | 1h 11m |
| Altitude | 34000 |
| Route | WOL DCT CB DCT BOYSE |
| Aircraft | A320/M-SDE3FGHIRWY/LB1 |
Departure
| Time | 2026-05-04 03:55 |
|---|---|
| Airport | Sydney Kingsford Smith International Airport (YSSY) |
Arrival
| Time | 2026-05-04 05:06 |
|---|---|
| Airport | Melbourne Airport (YMML) |
| Time | Latitude | Longitude | Altitude | Speed | Heading |
|---|---|---|---|---|---|
| 2026-05-04 03:08 | -33.93411 | 151.17715 | 30 ft | 0 kts | 99° |
| 2026-05-04 03:41 | -33.93409 | 151.17702 | 30 ft | 4 kts | 101° |
| 2026-05-04 03:41 | -33.93403 | 151.17671 | 30 ft | 4 kts | 107° |
| 2026-05-04 03:41 | -33.93394 | 151.17640 | 30 ft | 4 kts | 114° |
| 2026-05-04 03:42 | -33.93381 | 151.17612 | 30 ft | 4 kts | 126° |
| 2026-05-04 03:42 | -33.93363 | 151.17589 | 30 ft | 4 kts | 154° |
| 2026-05-04 03:42 | -33.93354 | 151.17585 | 30 ft | 0 kts | 168° |
| 2026-05-04 03:45 | -33.93362 | 151.17587 | 30 ft | 5 kts | 168° |
| 2026-05-04 03:45 | -33.93447 | 151.17585 | 30 ft | 18 kts | 192° |
| 2026-05-04 03:45 | -33.93575 | 151.17608 | 30 ft | 20 kts | 167° |
| 2026-05-04 03:45 | -33.93704 | 151.17673 | 30 ft | 21 kts | 155° |
| 2026-05-04 03:46 | -33.93843 | 151.17728 | 30 ft | 21 kts | 131° |
| 2026-05-04 03:46 | -33.93970 | 151.17799 | 29 ft | 22 kts | 168° |
| 2026-05-04 03:46 | -33.94124 | 151.17838 | 29 ft | 23 kts | 167° |
| 2026-05-04 03:46 | -33.94286 | 151.17880 | 30 ft | 24 kts | 168° |
| 2026-05-04 03:47 | -33.94457 | 151.17903 | 30 ft | 25 kts | 200° |
| 2026-05-04 03:47 | -33.94627 | 151.17909 | 30 ft | 26 kts | 168° |
| 2026-05-04 03:47 | -33.94799 | 151.17953 | 30 ft | 24 kts | 168° |
| 2026-05-04 03:47 | -33.94968 | 151.17997 | 30 ft | 26 kts | 168° |
| 2026-05-04 03:48 | -33.95104 | 151.18088 | 30 ft | 19 kts | 91° |
| 2026-05-04 03:48 | -33.95085 | 151.18179 | 30 ft | 11 kts | 81° |
| 2026-05-04 03:48 | -33.95062 | 151.18309 | 30 ft | 18 kts | 77° |
| 2026-05-04 03:48 | -33.95040 | 151.18464 | 30 ft | 19 kts | 99° |
| 2026-05-04 03:49 | -33.95137 | 151.18568 | 30 ft | 20 kts | 140° |
| 2026-05-04 03:49 | -33.95245 | 151.18680 | 30 ft | 21 kts | 145° |
| 2026-05-04 03:49 | -33.95392 | 151.18739 | 30 ft | 23 kts | 167° |
| 2026-05-04 03:49 | -33.95558 | 151.18783 | 30 ft | 25 kts | 168° |
| 2026-05-04 03:50 | -33.95736 | 151.18829 | 30 ft | 27 kts | 168° |
| 2026-05-04 03:50 | -33.95916 | 151.18875 | 30 ft | 26 kts | 168° |
| 2026-05-04 03:50 | -33.96097 | 151.18921 | 30 ft | 27 kts | 168° |
| 2026-05-04 03:50 | -33.96289 | 151.18972 | 30 ft | 29 kts | 167° |
| 2026-05-04 03:51 | -33.96489 | 151.19024 | 30 ft | 26 kts | 168° |
| 2026-05-04 03:51 | -33.96667 | 151.19070 | 30 ft | 26 kts | 168° |
| 2026-05-04 03:51 | -33.96847 | 151.19072 | 30 ft | 27 kts | 165° |
| 2026-05-04 03:51 | -33.97018 | 151.19116 | 30 ft | 15 kts | 167° |
| 2026-05-04 03:52 | -33.97062 | 151.19161 | 30 ft | 10 kts | 91° |
| 2026-05-04 03:52 | -33.97056 | 151.19199 | 30 ft | 0 kts | 77° |
| 2026-05-04 03:53 | -33.97055 | 151.19205 | 29 ft | 2 kts | 77° |
| 2026-05-04 03:53 | -33.97046 | 151.19258 | 28 ft | 16 kts | 78° |
| 2026-05-04 03:53 | -33.97002 | 151.19359 | 24 ft | 11 kts | 348° |
| 2026-05-04 03:53 | -33.96985 | 151.19352 | 24 ft | 0 kts | 347° |
| 2026-05-04 03:54 | -33.96820 | 151.19310 | 24 ft | 59 kts | 348° |
| 2026-05-04 03:54 | -33.96223 | 151.19155 | 27 ft | 114 kts | 347° |
| 2026-05-04 03:54 | -33.95298 | 151.18919 | 27 ft | 156 kts | 349° |
| 2026-05-04 03:54 | -33.94209 | 151.18719 | 535 ft | 159 kts | 6° |
| 2026-05-04 03:55 | -33.93181 | 151.19194 | 1177 ft | 164 kts | 37° |
| 2026-05-04 03:55 | -33.92588 | 151.20385 | 1773 ft | 176 kts | 76° |
| 2026-05-04 03:55 | -33.92816 | 151.21910 | 2146 ft | 199 kts | 115° |
| 2026-05-04 03:55 | -33.93483 | 151.23384 | 2704 ft | 202 kts | 114° |
| 2026-05-04 03:56 | -33.93838 | 151.25008 | 3204 ft | 203 kts | 84° |
| 2026-05-04 03:56 | -33.93794 | 151.26710 | 3790 ft | 204 kts | 81° |
| 2026-05-04 03:56 | -33.93741 | 151.28478 | 4116 ft | 222 kts | 82° |
| 2026-05-04 03:56 | -33.93677 | 151.30419 | 4365 ft | 241 kts | 82° |
| 2026-05-04 03:57 | -33.93608 | 151.32514 | 4622 ft | 265 kts | 83° |
| 2026-05-04 03:57 | -33.93537 | 151.34817 | 5163 ft | 281 kts | 84° |
| 2026-05-04 03:57 | -33.93471 | 151.37176 | 6013 ft | 283 kts | 84° |
| 2026-05-04 03:57 | -33.93409 | 151.39556 | 6858 ft | 285 kts | 84° |
| 2026-05-04 03:58 | -33.93274 | 151.44409 | 8399 ft | 295 kts | 84° |
| 2026-05-04 03:58 | -33.93202 | 151.46891 | 9145 ft | 300 kts | 84° |
| 2026-05-04 03:58 | -33.93191 | 151.49421 | 9875 ft | 307 kts | 92° |
| 2026-05-04 03:59 | -33.93688 | 151.52004 | 10238 ft | 330 kts | 110° |
| 2026-05-04 03:59 | -33.94905 | 151.54458 | 10414 ft | 354 kts | 130° |
| 2026-05-04 03:59 | -33.96795 | 151.56377 | 10865 ft | 364 kts | 150° |
| 2026-05-04 03:59 | -33.99170 | 151.57537 | 11487 ft | 366 kts | 169° |
| 2026-05-04 04:00 | -34.01706 | 151.57717 | 12081 ft | 366 kts | 190° |
| 2026-05-04 04:00 | -34.04129 | 151.56869 | 12722 ft | 362 kts | 210° |
| 2026-05-04 04:00 | -34.06140 | 151.55155 | 13339 ft | 358 kts | 230° |
| 2026-05-04 04:00 | -34.07224 | 151.53618 | 13760 ft | 357 kts | 236° |
| 2026-05-04 04:01 | -34.09264 | 151.50483 | 14522 ft | 360 kts | 236° |
| 2026-05-04 04:01 | -34.10820 | 151.48101 | 15112 ft | 363 kts | 236° |
| 2026-05-04 04:01 | -34.12396 | 151.45703 | 15680 ft | 365 kts | 236° |
| 2026-05-04 04:01 | -34.13464 | 151.44080 | 16077 ft | 367 kts | 236° |
| 2026-05-04 04:02 | -34.15038 | 151.41692 | 16652 ft | 369 kts | 236° |
| 2026-05-04 04:02 | -34.16643 | 151.39256 | 17225 ft | 372 kts | 236° |
| 2026-05-04 04:02 | -34.18254 | 151.36803 | 17789 ft | 375 kts | 236° |
| 2026-05-04 04:02 | -34.19872 | 151.34328 | 18344 ft | 378 kts | 236° |
| 2026-05-04 04:03 | -34.21508 | 151.31827 | 18831 ft | 381 kts | 237° |
| 2026-05-04 04:03 | -34.23162 | 151.29300 | 19334 ft | 384 kts | 237° |
| 2026-05-04 04:03 | -34.24825 | 151.26766 | 19838 ft | 386 kts | 237° |
| 2026-05-04 04:03 | -34.26495 | 151.24217 | 20366 ft | 388 kts | 237° |
| 2026-05-04 04:04 | -34.28175 | 151.21645 | 20862 ft | 390 kts | 237° |
| 2026-05-04 04:04 | -34.29858 | 151.19059 | 21346 ft | 392 kts | 237° |
| 2026-05-04 04:04 | -34.31551 | 151.16462 | 21826 ft | 394 kts | 237° |
| 2026-05-04 04:04 | -34.33257 | 151.13850 | 22293 ft | 397 kts | 237° |
| 2026-05-04 04:05 | -34.34974 | 151.11221 | 22775 ft | 399 kts | 237° |
| 2026-05-04 04:05 | -34.36699 | 151.08579 | 23222 ft | 401 kts | 237° |
| 2026-05-04 04:05 | -34.38429 | 151.05919 | 23657 ft | 403 kts | 238° |
| 2026-05-04 04:05 | -34.40163 | 151.03240 | 24039 ft | 405 kts | 238° |
| 2026-05-04 04:06 | -34.41907 | 151.00542 | 24422 ft | 407 kts | 238° |
| 2026-05-04 04:06 | -34.43653 | 150.97843 | 24785 ft | 409 kts | 238° |
| 2026-05-04 04:06 | -34.45419 | 150.95118 | 25161 ft | 411 kts | 238° |
| 2026-05-04 04:06 | -34.47194 | 150.92390 | 25525 ft | 413 kts | 238° |
| 2026-05-04 04:07 | -34.48974 | 150.89648 | 25899 ft | 415 kts | 238° |
| 2026-05-04 04:07 | -34.50745 | 150.86914 | 26271 ft | 418 kts | 238° |
| 2026-05-04 04:07 | -34.52539 | 150.84135 | 26612 ft | 420 kts | 238° |
| 2026-05-04 04:07 | -34.54345 | 150.81334 | 26959 ft | 422 kts | 238° |
| 2026-05-04 04:08 | -34.56153 | 150.78526 | 27309 ft | 424 kts | 239° |
| 2026-05-04 04:08 | -34.57940 | 150.75670 | 27658 ft | 425 kts | 240° |
| 2026-05-04 04:08 | -34.59699 | 150.72770 | 28000 ft | 427 kts | 240° |
| 2026-05-04 04:08 | -34.61444 | 150.69839 | 28340 ft | 430 kts | 241° |
| 2026-05-04 04:09 | -34.63193 | 150.66884 | 28692 ft | 432 kts | 241° |
| 2026-05-04 04:09 | -34.64955 | 150.63912 | 29034 ft | 434 kts | 240° |
| 2026-05-04 04:09 | -34.66735 | 150.60929 | 29383 ft | 437 kts | 240° |
| 2026-05-04 04:09 | -34.68527 | 150.57938 | 29726 ft | 439 kts | 240° |
| 2026-05-04 04:10 | -34.70340 | 150.54927 | 30084 ft | 441 kts | 240° |
| 2026-05-04 04:10 | -34.72148 | 150.51932 | 30518 ft | 439 kts | 240° |
| 2026-05-04 04:10 | -34.73949 | 150.48949 | 30958 ft | 436 kts | 240° |
| 2026-05-04 04:10 | -34.75738 | 150.45981 | 31434 ft | 434 kts | 240° |
| 2026-05-04 04:11 | -34.77513 | 150.43027 | 31934 ft | 430 kts | 240° |
| 2026-05-04 04:11 | -34.79265 | 150.40103 | 32404 ft | 427 kts | 241° |
| 2026-05-04 04:11 | -34.81004 | 150.37191 | 32910 ft | 423 kts | 241° |
| 2026-05-04 04:11 | -34.82707 | 150.34335 | 33350 ft | 422 kts | 241° |
| 2026-05-04 04:12 | -34.84425 | 150.31448 | 33801 ft | 420 kts | 241° |
| 2026-05-04 04:12 | -34.86136 | 150.28573 | 33964 ft | 420 kts | 242° |
| 2026-05-04 04:12 | -34.89559 | 150.22806 | 33994 ft | 419 kts | 242° |
| 2026-05-04 04:13 | -34.92969 | 150.17049 | 34014 ft | 420 kts | 242° |
| 2026-05-04 04:13 | -34.96385 | 150.11302 | 33992 ft | 418 kts | 242° |
| 2026-05-04 04:14 | -34.99797 | 150.05553 | 33994 ft | 420 kts | 242° |
| 2026-05-04 04:14 | -35.03215 | 149.99772 | 33996 ft | 420 kts | 242° |
| 2026-05-04 04:15 | -35.06637 | 149.93973 | 33999 ft | 420 kts | 242° |
| 2026-05-04 04:15 | -35.10059 | 149.88181 | 34005 ft | 420 kts | 242° |
| 2026-05-04 04:16 | -35.13472 | 149.82381 | 34022 ft | 421 kts | 242° |
| 2026-05-04 04:16 | -35.16889 | 149.76558 | 34008 ft | 422 kts | 242° |
| 2026-05-04 04:17 | -35.20312 | 149.70726 | 33997 ft | 423 kts | 242° |
| 2026-05-04 04:17 | -35.23716 | 149.64913 | 34006 ft | 423 kts | 242° |
| 2026-05-04 04:18 | -35.27144 | 149.59050 | 34028 ft | 423 kts | 242° |
| 2026-05-04 04:18 | -35.30575 | 149.53178 | 34006 ft | 424 kts | 242° |
| 2026-05-04 04:19 | -35.34010 | 149.47291 | 34015 ft | 425 kts | 242° |
| 2026-05-04 04:19 | -35.37446 | 149.41383 | 34013 ft | 426 kts | 242° |
| 2026-05-04 04:20 | -35.40884 | 149.35460 | 34016 ft | 426 kts | 242° |
| 2026-05-04 04:20 | -35.44321 | 149.29531 | 34022 ft | 427 kts | 242° |
| 2026-05-04 04:21 | -35.47763 | 149.23588 | 34014 ft | 428 kts | 242° |
| 2026-05-04 04:21 | -35.51206 | 149.17630 | 34010 ft | 428 kts | 242° |
| 2026-05-04 04:22 | -35.54656 | 149.11656 | 34004 ft | 429 kts | 242° |
| 2026-05-04 04:22 | -35.58096 | 149.05679 | 33992 ft | 429 kts | 242° |
| 2026-05-04 04:23 | -35.61537 | 148.99683 | 34006 ft | 429 kts | 243° |
| 2026-05-04 04:23 | -35.64956 | 148.93724 | 34000 ft | 429 kts | 243° |
| 2026-05-04 04:24 | -35.68415 | 148.87689 | 33998 ft | 429 kts | 243° |
| 2026-05-04 04:24 | -35.71847 | 148.81685 | 34007 ft | 429 kts | 243° |
| 2026-05-04 04:25 | -35.75256 | 148.75707 | 33998 ft | 430 kts | 243° |
| 2026-05-04 04:25 | -35.78689 | 148.69678 | 34006 ft | 430 kts | 243° |
| 2026-05-04 04:26 | -35.82136 | 148.63615 | 34005 ft | 429 kts | 243° |
| 2026-05-04 04:26 | -35.85565 | 148.57590 | 34027 ft | 429 kts | 244° |
| 2026-05-04 04:27 | -35.88973 | 148.51585 | 33994 ft | 430 kts | 244° |
| 2026-05-04 04:27 | -35.92414 | 148.45483 | 34028 ft | 431 kts | 244° |
| 2026-05-04 04:28 | -35.95799 | 148.39449 | 34015 ft | 430 kts | 244° |
| 2026-05-04 04:28 | -35.99227 | 148.33340 | 34020 ft | 430 kts | 244° |
| 2026-05-04 04:29 | -36.02623 | 148.27303 | 34009 ft | 431 kts | 244° |
| 2026-05-04 04:29 | -36.06046 | 148.21207 | 34006 ft | 432 kts | 244° |
| 2026-05-04 04:30 | -36.09452 | 148.15101 | 34031 ft | 430 kts | 245° |
| 2026-05-04 04:30 | -36.12842 | 148.09023 | 34029 ft | 429 kts | 245° |
| 2026-05-04 04:31 | -36.16250 | 148.02936 | 34029 ft | 429 kts | 245° |
| 2026-05-04 04:31 | -36.19648 | 147.96856 | 34025 ft | 429 kts | 245° |
| 2026-05-04 04:32 | -36.23033 | 147.90779 | 34062 ft | 429 kts | 245° |
| 2026-05-04 04:32 | -36.26416 | 147.84708 | 34056 ft | 428 kts | 245° |
| 2026-05-04 04:33 | -36.29789 | 147.78647 | 34036 ft | 426 kts | 245° |
| 2026-05-04 04:33 | -36.33141 | 147.72579 | 34022 ft | 426 kts | 246° |
| 2026-05-04 04:34 | -36.36467 | 147.66551 | 34027 ft | 426 kts | 246° |
| 2026-05-04 04:34 | -36.39814 | 147.60474 | 34034 ft | 427 kts | 246° |
| 2026-05-04 04:35 | -36.43160 | 147.54388 | 34032 ft | 427 kts | 246° |
| 2026-05-04 04:35 | -36.46513 | 147.48284 | 34018 ft | 428 kts | 246° |
| 2026-05-04 04:36 | -36.49865 | 147.42167 | 34014 ft | 428 kts | 246° |
| 2026-05-04 04:36 | -36.53216 | 147.36045 | 34029 ft | 428 kts | 246° |
| 2026-05-04 04:37 | -36.59919 | 147.23757 | 34020 ft | 430 kts | 246° |
| 2026-05-04 04:38 | -36.63270 | 147.17592 | 34014 ft | 430 kts | 246° |
| 2026-05-04 04:38 | -36.66632 | 147.11413 | 34015 ft | 431 kts | 246° |
| 2026-05-04 04:39 | -36.69982 | 147.05226 | 34032 ft | 431 kts | 246° |
| 2026-05-04 04:39 | -36.73333 | 146.99038 | 34026 ft | 431 kts | 246° |
| 2026-05-04 04:40 | -36.76679 | 146.92850 | 34021 ft | 430 kts | 246° |
| 2026-05-04 04:40 | -36.80019 | 146.86650 | 34025 ft | 430 kts | 246° |
| 2026-05-04 04:41 | -36.83339 | 146.80471 | 34018 ft | 431 kts | 245° |
| 2026-05-04 04:41 | -36.86700 | 146.74230 | 34008 ft | 431 kts | 245° |
| 2026-05-04 04:42 | -36.90015 | 146.68055 | 34009 ft | 431 kts | 245° |
| 2026-05-04 04:42 | -36.91679 | 146.64948 | 33543 ft | 428 kts | 246° |
| 2026-05-04 04:42 | -36.93317 | 146.61903 | 33018 ft | 416 kts | 246° |
| 2026-05-04 04:43 | -36.94911 | 146.58950 | 32536 ft | 404 kts | 246° |
| 2026-05-04 04:43 | -36.96459 | 146.56076 | 32086 ft | 392 kts | 246° |
| 2026-05-04 04:43 | -36.97957 | 146.53278 | 31640 ft | 383 kts | 247° |
| 2026-05-04 04:43 | -36.99431 | 146.50497 | 31201 ft | 383 kts | 247° |
| 2026-05-04 04:44 | -37.00900 | 146.47710 | 30759 ft | 383 kts | 247° |
| 2026-05-04 04:44 | -37.02362 | 146.44935 | 30320 ft | 383 kts | 247° |
| 2026-05-04 04:44 | -37.03833 | 146.42146 | 29853 ft | 384 kts | 247° |
| 2026-05-04 04:44 | -37.05305 | 146.39361 | 29395 ft | 382 kts | 247° |
| 2026-05-04 04:45 | -37.06774 | 146.36595 | 28956 ft | 381 kts | 246° |
| 2026-05-04 04:45 | -37.08245 | 146.33829 | 28514 ft | 380 kts | 246° |
| 2026-05-04 04:45 | -37.09706 | 146.31082 | 28111 ft | 378 kts | 246° |
| 2026-05-04 04:47 | -37.17836 | 146.15731 | 25776 ft | 367 kts | 246° |
| 2026-05-04 04:47 | -37.19692 | 146.12205 | 25262 ft | 364 kts | 246° |
| 2026-05-04 04:47 | -37.21083 | 146.09559 | 24858 ft | 363 kts | 246° |
| 2026-05-04 04:47 | -37.22468 | 146.06927 | 24460 ft | 361 kts | 246° |
| 2026-05-04 04:48 | -37.23849 | 146.04304 | 24110 ft | 360 kts | 246° |
| 2026-05-04 04:49 | -37.28870 | 145.94723 | 22487 ft | 352 kts | 246° |
| 2026-05-04 04:49 | -37.30208 | 145.92173 | 22087 ft | 348 kts | 246° |
| 2026-05-04 04:49 | -37.31535 | 145.89643 | 21676 ft | 345 kts | 245° |
| 2026-05-04 04:49 | -37.32855 | 145.87130 | 21264 ft | 343 kts | 245° |
| 2026-05-04 04:50 | -37.34151 | 145.84661 | 20863 ft | 342 kts | 245° |
| 2026-05-04 04:50 | -37.35458 | 145.82173 | 20451 ft | 340 kts | 245° |
| 2026-05-04 04:50 | -37.36757 | 145.79700 | 20040 ft | 338 kts | 245° |
| 2026-05-04 04:50 | -37.38051 | 145.77234 | 19642 ft | 337 kts | 244° |
| 2026-05-04 04:51 | -37.39342 | 145.74774 | 19222 ft | 336 kts | 244° |
| 2026-05-04 04:51 | -37.40623 | 145.72327 | 18817 ft | 334 kts | 244° |
| 2026-05-04 04:51 | -37.41901 | 145.69883 | 18410 ft | 332 kts | 244° |
| 2026-05-04 04:51 | -37.43162 | 145.67463 | 17974 ft | 330 kts | 244° |
| 2026-05-04 04:52 | -37.44227 | 145.64964 | 17566 ft | 318 kts | 255° |
| 2026-05-04 04:52 | -37.44836 | 145.62349 | 17171 ft | 307 kts | 265° |
| 2026-05-04 04:52 | -37.45023 | 145.59712 | 16813 ft | 299 kts | 275° |
| 2026-05-04 04:52 | -37.44988 | 145.57104 | 16442 ft | 296 kts | 275° |
| 2026-05-04 04:53 | -37.44960 | 145.54534 | 16083 ft | 293 kts | 275° |
| 2026-05-04 04:53 | -37.44933 | 145.51974 | 15731 ft | 291 kts | 275° |
| 2026-05-04 04:53 | -37.44908 | 145.49467 | 15380 ft | 290 kts | 275° |
| 2026-05-04 04:53 | -37.44882 | 145.46933 | 15016 ft | 290 kts | 275° |
| 2026-05-04 04:54 | -37.44966 | 145.44396 | 14631 ft | 293 kts | 264° |
| 2026-05-04 04:54 | -37.45569 | 145.41929 | 14242 ft | 300 kts | 249° |
| 2026-05-04 04:54 | -37.46722 | 145.39705 | 13851 ft | 309 kts | 233° |
| 2026-05-04 04:54 | -37.48305 | 145.37845 | 13426 ft | 313 kts | 227° |
| 2026-05-04 04:55 | -37.49939 | 145.36040 | 13010 ft | 312 kts | 227° |
| 2026-05-04 04:55 | -37.51568 | 145.34233 | 12603 ft | 312 kts | 227° |
| 2026-05-04 04:55 | -37.53191 | 145.32430 | 12198 ft | 311 kts | 228° |
| 2026-05-04 04:55 | -37.54810 | 145.30630 | 11797 ft | 310 kts | 227° |
| 2026-05-04 04:56 | -37.56421 | 145.28836 | 11405 ft | 309 kts | 227° |
| 2026-05-04 04:56 | -37.58037 | 145.27037 | 11001 ft | 308 kts | 227° |
| 2026-05-04 04:56 | -37.59641 | 145.25252 | 10612 ft | 308 kts | 228° |
| 2026-05-04 04:56 | -37.61245 | 145.23460 | 10229 ft | 307 kts | 228° |
| 2026-05-04 04:57 | -37.62831 | 145.21693 | 10020 ft | 300 kts | 228° |
| 2026-05-04 04:57 | -37.64372 | 145.19978 | 9877 ft | 291 kts | 229° |
| 2026-05-04 04:57 | -37.65889 | 145.18287 | 9545 ft | 290 kts | 229° |
| 2026-05-04 04:57 | -37.67388 | 145.16611 | 9263 ft | 286 kts | 229° |
| 2026-05-04 04:58 | -37.68879 | 145.14941 | 8885 ft | 285 kts | 229° |
| 2026-05-04 04:58 | -37.70344 | 145.13303 | 8543 ft | 284 kts | 229° |
| 2026-05-04 04:58 | -37.71817 | 145.11655 | 8265 ft | 281 kts | 229° |
| 2026-05-04 04:58 | -37.73266 | 145.10039 | 8130 ft | 272 kts | 229° |
| 2026-05-04 04:59 | -37.74657 | 145.08487 | 7893 ft | 262 kts | 229° |
| 2026-05-04 04:59 | -37.76012 | 145.06970 | 7408 ft | 259 kts | 230° |
| 2026-05-04 04:59 | -37.77355 | 145.05458 | 6894 ft | 257 kts | 230° |
| 2026-05-04 04:59 | -37.78692 | 145.03952 | 6376 ft | 257 kts | 230° |
| 2026-05-04 05:00 | -37.80016 | 145.02445 | 5853 ft | 254 kts | 233° |
| 2026-05-04 05:00 | -37.81071 | 145.00730 | 5300 ft | 245 kts | 249° |
| 2026-05-04 05:00 | -37.82092 | 144.96753 | 4137 ft | 238 kts | 265° |
| 2026-05-04 05:01 | -37.82446 | 144.94726 | 3780 ft | 231 kts | 265° |
| 2026-05-04 05:01 | -37.82751 | 144.92803 | 3612 ft | 215 kts | 268° |
| 2026-05-04 05:01 | -37.82987 | 144.90971 | 3500 ft | 204 kts | 270° |
| 2026-05-04 05:01 | -37.83183 | 144.89257 | 3404 ft | 191 kts | 276° |
| 2026-05-04 05:02 | -37.82906 | 144.87742 | 3314 ft | 171 kts | 308° |
| 2026-05-04 05:02 | -37.82074 | 144.86746 | 3141 ft | 167 kts | 335° |
| 2026-05-04 05:02 | -37.80954 | 144.86403 | 2888 ft | 167 kts | 349° |
| 2026-05-04 05:02 | -37.79804 | 144.86197 | 2653 ft | 164 kts | 349° |
| 2026-05-04 05:03 | -37.78727 | 144.86003 | 2429 ft | 150 kts | 349° |
| 2026-05-04 05:03 | -37.77751 | 144.85823 | 2211 ft | 137 kts | 349° |
| 2026-05-04 05:04 | -37.75039 | 144.85314 | 1657 ft | 128 kts | 349° |
| 2026-05-04 05:04 | -37.74157 | 144.85148 | 1459 ft | 130 kts | 348° |
| 2026-05-04 05:04 | -37.73269 | 144.84980 | 1286 ft | 129 kts | 350° |
| 2026-05-04 05:06 | -37.67205 | 144.83836 | 380 ft | 74 kts | 354° |
| 2026-05-04 05:06 | -37.66958 | 144.83851 | 387 ft | 23 kts | 20° |
| 2026-05-04 05:06 | -37.66876 | 144.83894 | 390 ft | 0 kts | 23° |
| 2026-05-04 05:07 | -37.66857 | 144.83904 | 391 ft | 5 kts | 22° |
| 2026-05-04 05:07 | -37.66821 | 144.83923 | 392 ft | 8 kts | 22° |
| 2026-05-04 05:09 | -37.67446 | 144.84316 | 377 ft | 4 kts | 171° |
| 2026-05-04 05:09 | -37.67548 | 144.84335 | 374 ft | 24 kts | 172° |
| 2026-05-04 05:10 | -37.67733 | 144.84369 | 370 ft | 29 kts | 172° |
| 2026-05-04 05:10 | -37.67837 | 144.84433 | 367 ft | 7 kts | 91° |
| 2026-05-04 05:10 | -37.67825 | 144.84506 | 367 ft | 10 kts | 81° |
| 2026-05-04 05:10 | -37.67800 | 144.84589 | 367 ft | 9 kts | 34° |
| 2026-05-04 05:11 | -37.67744 | 144.84594 | 369 ft | 7 kts | 8° |
| 2026-05-04 05:11 | -37.67704 | 144.84618 | 372 ft | 6 kts | 28° |
| 2026-05-04 05:11 | -37.67675 | 144.84643 | 373 ft | 4 kts | 37° |
| 2026-05-04 05:11 | -37.67655 | 144.84662 | 374 ft | 0 kts | 37° |
| 2026-05-04 05:12 | -37.67651 | 144.84666 | 374 ft | 0 kts | 37° |
| 2026-05-04 05:12 | -37.67650 | 144.84666 | 374 ft | 0 kts | 37° |